Главная страница
METAR-TAF:

METAR-TAF

Аэропорты :

Актобе, Казахстан

широта: 50-17N, долгота: 057-09E, высота над уровнем моря: 227 м

Текущие метеонаблюдения

Эта сводка был подготовлена 20 минут назад, в 12:00 UTC
Ветер 6 Узел от восточно-северо-восточный
Температура -13°C
Влажность 78%
Давление 1039 hPa
Видимость 10 км и более
Нет облачности ниже 1500 м, и нет кучево-дождевой облачности

METAR: UATT 151200Z 06003MPS CAVOK M13/M16 Q1039 R13/0///60 NOSIG RMK QFE759/1012

Время: 17:20 (12:20 UTC)

Прогноз

Эта сводка был подготовлена 1 час и 20 минут назад, в 11:00 UTC
Прогноз действительный с 15-го 12 UTC до 16-го 12 UTC
Ветер 10 Узел от восточный
Видимость 10 км и более
Отдельные облака на высоте 5000 фута
временами
С 15-го 14 UTC до 16-го 06 UTC
Видимость: 3000 м
Отдельные облака на высоте 1000 фута
дымка, дым

TAF: UATT 151100Z 1512/1612 10005MPS 9999 SCT050 TXM11/1512Z TNM22/1602Z TEMPO 1514/1606 3000 BR FU SCT010

Метеонаблюдения и прогнозы для более 4000 аэропортов (сводки METAR и TAF).

Имеющиеся станции представлены на карте желтыми и красными точками.

Чтобы увидеть название станции, наведите на нее мышь.

Затем щелкните, чтобы увидеть метеонаблюдения и метеопрогнозы.

Управление картой: чтобы увеличить масштаб, щелкните зеленые кнопки с черным крестиком; чтобы уменьшить масштаб, щелкните зеленую кнопку с тире; для просмотра соседних карт щелкайте зеленые стрелки.


METAR-TAF: